Time;durP1;ratioP1;P1;durP2;ratioP2;P2;SDS_P1;SDS_P2;PMS_P1;PMS_P2;Temp;Humidity;BMP_temperature;BMP_pressure;BME280_temperature;BME280_humidity;BME280_pressure;Samples;Min_cycle;Max_cycle;Signal;HPM_P1;HPM_P2
2022/08/11 00:02:23;;;;;;;6.10;2.90;;;;;;;;;;5090066;28;20047;-73
2022/08/11 00:04:50;;;;;;;4.88;3.10;;;;;;;;;;5090581;28;20027;-74
2022/08/11 00:07:16;;;;;;;5.15;3.65;;;;;;;;;;5114359;27;20481;-74
2022/08/11 00:09:42;;;;;;;6.20;3.60;;;;;;;;;;5081216;28;20071;-74
2022/08/11 00:12:13;;;;;;;6.53;3.92;;;;;;;;;;5092664;28;20020;-74
2022/08/11 00:14:40;;;;;;;8.55;2.92;;;;;;;;;;5092526;28;20490;-74
2022/08/11 00:17:08;;;;;;;6.60;3.35;;;;;;;;;;5093611;28;20032;-74
2022/08/11 00:19:36;;;;;;;8.27;3.22;;;;;;;;;;5094017;28;20024;-74
2022/08/11 00:22:03;;;;;;;7.90;2.72;;;;;;;;;;5093720;28;20506;-74
2022/08/11 00:24:33;;;;;;;8.18;2.80;;;;;;;;;;5094022;28;20028;-75
2022/08/11 00:26:59;;;;;;;5.25;3.28;;;;;;;;;;5093978;28;20051;-75
2022/08/11 00:29:26;;;;;;;10.35;3.95;;;;;;;;;;5093618;28;20062;-74
2022/08/11 00:31:53;;;;;;;5.30;2.95;;;;;;;;;;5126572;27;20451;-74
2022/08/11 00:34:28;;;;;;;5.47;2.88;;;;;;;;;;5111918;27;20494;-75
2022/08/11 00:36:56;;;;;;;11.65;3.15;;;;;;;;;;5093679;28;20032;-74
2022/08/11 00:39:24;;;;;;;6.07;3.30;;;;;;;;;;5093485;28;20070;-74
2022/08/11 00:41:53;;;;;;;7.43;3.72;;;;;;;;;;5126408;27;20070;-75
2022/08/11 00:44:32;;;;;;;11.60;3.25;;;;;;;;;;5093025;28;20562;-73
2022/08/11 00:47:04;;;;;;;9.35;3.75;;;;;;;;;;5098176;28;20028;-74
2022/08/11 00:49:38;;;;;;;5.68;2.78;;;;;;;;;;5095645;28;20029;-73
2022/08/11 00:52:19;;;;;;;5.82;3.17;;;;;;;;;;5084092;28;20017;-73
2022/08/11 00:55:02;;;;;;;5.97;3.45;;;;;;;;;;5087160;28;20111;-72
2022/08/11 00:57:40;;;;;;;6.60;3.05;;;;;;;;;;5082675;28;20107;-72
2022/08/11 01:00:17;;;;;;;3.75;2.75;;;;;;;;;;5092998;28;20490;-73
2022/08/11 01:02:52;;;;;;;8.57;3.50;;;;;;;;;;5092611;28;20021;-72
2022/08/11 01:05:34;;;;;;;5.65;3.55;;;;;;;;;;5092538;28;20514;-72
2022/08/11 01:08:28;;;;;;;7.80;3.13;;;;;;;;;;5092567;28;20430;-73
2022/08/11 01:11:07;;;;;;;7.45;3.33;;;;;;;;;;5093116;28;20458;-73
2022/08/11 01:13:51;;;;;;;10.90;3.65;;;;;;;;;;5089927;28;20082;-72
2022/08/11 01:16:17;;;;;;;7.28;3.80;;;;;;;;;;5115882;27;20062;-73
2022/08/11 01:19:02;;;;;;;11.73;4.75;;;;;;;;;;5092380;28;20056;-74
2022/08/11 01:21:31;;;;;;;10.38;4.32;;;;;;;;;;5125263;27;20490;-73
2022/08/11 01:24:13;;;;;;;7.45;4.35;;;;;;;;;;5090881;28;20048;-73
2022/08/11 01:26:48;;;;;;;10.07;4.22;;;;;;;;;;5124976;27;20417;-73
2022/08/11 01:29:33;;;;;;;6.38;3.67;;;;;;;;;;5086507;28;20043;-74
2022/08/11 01:32:19;;;;;;;6.60;3.85;;;;;;;;;;5118918;27;20024;-74
2022/08/11 01:34:47;;;;;;;7.70;3.75;;;;;;;;;;5091966;28;20056;-73
2022/08/11 01:37:16;;;;;;;6.20;3.70;;;;;;;;;;5092157;28;20462;-74
2022/08/11 01:39:45;;;;;;;8.38;3.60;;;;;;;;;;5084508;28;20111;-74
2022/08/11 01:45:07;;;;;;;7.65;3.78;;;;;;;;;;5091991;28;20068;-72
2022/08/11 01:47:52;;;;;;;5.60;3.85;;;;;;;;;;5095072;28;20055;-75
2022/08/11 01:50:36;;;;;;;7.95;3.83;;;;;;;;;;5081991;28;20028;-73
2022/08/11 01:53:21;;;;;;;5.47;3.38;;;;;;;;;;5091636;28;20479;-73
2022/08/11 01:56:07;;;;;;;4.53;3.35;;;;;;;;;;5092114;28;20411;-72
2022/08/11 01:58:39;;;;;;;13.38;4.05;;;;;;;;;;5124372;27;20024;-72
2022/08/11 02:01:05;;;;;;;10.68;3.53;;;;;;;;;;5091934;28;20020;-72
2022/08/11 02:03:43;;;;;;;5.47;3.20;;;;;;;;;;5091216;28;20395;-71
2022/08/11 02:06:53;;;;;;;12.70;3.72;;;;;;;;;;5091758;28;20041;-72
2022/08/11 02:09:02;;;;;;;7.30;3.33;;;;;;;;;;5077373;28;20028;-73
2022/08/11 02:11:31;;;;;;;5.65;3.47;;;;;;;;;;5124361;27;20065;-73
2022/08/11 02:13:57;;;;;;;5.32;3.35;;;;;;;;;;5089960;28;20360;-73
2022/08/11 02:16:35;;;;;;;5.72;2.80;;;;;;;;;;5079657;28;20074;-73
2022/08/11 02:24:59;;;;;;;7.25;3.78;;;;;;;;;;5083043;28;20074;-72
2022/08/11 02:27:34;;;;;;;8.85;3.90;;;;;;;;;;5074905;28;20020;-73
2022/08/11 02:30:11;;;;;;;9.90;3.75;;;;;;;;;;5090738;28;20031;-73
2022/08/11 02:35:46;;;;;;;10.33;4.63;;;;;;;;;;5090665;28;20081;-71
2022/08/11 02:38:24;;;;;;;5.10;3.33;;;;;;;;;;5081434;28;20021;-71
2022/08/11 02:42:21;;;;;;;8.80;3.28;;;;;;;;;;5073459;28;20020;-72
2022/08/11 02:44:06;;;;;;;7.95;4.70;;;;;;;;;;5089778;28;20395;-72
2022/08/11 02:46:41;;;;;;;7.60;4.25;;;;;;;;;;5074842;28;20028;-72
2022/08/11 02:52:19;;;;;;;11.10;6.05;;;;;;;;;;5079172;28;20030;-73
2022/08/11 02:55:05;;;;;;;8.23;3.85;;;;;;;;;;5089157;28;20020;-72
2022/08/11 02:57:40;;;;;;;7.10;4.53;;;;;;;;;;5090535;28;20119;-73
2022/08/11 03:00:11;;;;;;;6.50;4.40;;;;;;;;;;5090738;28;20070;-73
2022/08/11 03:02:48;;;;;;;7.93;5.22;;;;;;;;;;5089587;28;20039;-74
2022/08/11 03:05:17;;;;;;;12.13;5.18;;;;;;;;;;5119562;27;20098;-76
2022/08/11 03:07:43;;;;;;;9.32;4.80;;;;;;;;;;5081061;28;20027;-75
2022/08/11 03:10:43;;;;;;;6.57;4.03;;;512.10;2022.40;;;;;;5123458;27;20034;-74
2022/08/11 03:16:47;;;;;;;7.07;4.55;;;487.30;2073.60;;;;;;5081499;28;20505;-75
2022/08/11 03:19:41;;;;;;;7.22;4.78;;;487.20;2073.60;;;;;;5077787;28;20111;-77
2022/08/11 03:22:23;;;;;;;7.00;4.03;;;487.30;2048.00;;;;;;5088737;28;20047;-76
2022/08/11 03:25:11;;;;;;;9.40;4.53;;;487.10;2099.20;;;;;;5090520;28;20028;-76
2022/08/11 03:28:13;;;;;;;14.05;5.97;;;;;;;;;;5089590;28;20039;-76
2022/08/11 03:30:41;;;;;;;6.72;4.80;;;487.10;2124.80;;;;;;5053672;28;20051;-77
2022/08/11 03:36:47;;;;;;;8.75;4.85;;;486.80;2150.40;;;;;;5074565;28;20073;-76
2022/08/11 03:39:30;;;;;;;7.03;5.03;;;486.70;2176.00;;;;;;5032311;28;20044;-77
2022/08/11 03:42:21;;;;;;;7.32;4.00;;;486.80;2201.60;;;;;;5083120;28;20044;-77
2022/08/11 03:44:59;;;;;;;10.52;4.45;;;;;;;;;;5071530;28;20058;-77
2022/08/11 03:47:54;;;;;;;11.55;4.68;;;487.00;2176.00;;;;;;5127480;27;20382;-76
2022/08/11 03:50:46;;;;;;;12.63;5.00;;;;;;;;;;5107634;28;20037;-76
2022/08/11 03:53:18;;;;;;;9.80;4.60;;;;;;;;;;5091165;28;20027;-76
2022/08/11 03:55:44;;;;;;;11.02;4.53;;;;;;;;;;5093227;28;20027;-74
2022/08/11 03:58:45;;;;;;;8.70;3.95;;;487.00;2124.80;;;;;;5092144;28;20481;-75
2022/08/11 04:01:31;;;;;;;7.18;2.90;;;;;;;;;;5074877;28;20492;-75
2022/08/11 04:04:06;;;;;;;6.07;3.72;;;;;;;;;;5082775;28;20031;-75
2022/08/11 04:06:51;;;;;;;11.90;4.97;;;;;;;;;;5092818;28;20395;-75
2022/08/11 04:09:35;;;;;;;6.13;4.45;;;;;;;;;;5127060;27;20024;-77
2022/08/11 04:12:27;;;;;;;11.05;4.40;;;;;;;;;;5080798;28;20028;-76
2022/08/11 04:17:56;;;;;;;5.75;3.67;;;;;;;;;;5083160;28;20127;-76
2022/08/11 04:20:41;;;;;;;9.68;4.80;;;;;;;;;;5092349;28;20058;-76
2022/08/11 04:23:20;;;;;;;14.82;5.00;;;;;;;;;;5093526;28;20085;-76
2022/08/11 04:26:06;;;;;;;8.85;4.50;;;;;;;;;;5088348;28;20044;-74
2022/08/11 04:28:48;;;;;;;6.03;3.90;;;;;;;;;;5061141;28;20028;-75
2022/08/11 04:31:23;;;;;;;7.13;3.67;;;;;;;;;;5080403;28;20466;-76
2022/08/11 04:33:58;;;;;;;7.93;4.57;;;;;;;;;;5079679;28;20037;-75
2022/08/11 04:37:31;;;;;;;8.32;4.00;;;;;;;;;;5093722;28;20024;-75
2022/08/11 04:39:18;;;;;;;10.90;5.60;;;;;;;;;;5093186;28;20058;-76
2022/08/11 04:44:55;;;;;;;12.20;4.10;;;;;;;;;;5081042;28;20126;-75
2022/08/11 05:02:08;;;;;;;11.68;4.65;;;;;;;;;;5092828;28;20023;-75
2022/08/11 05:07:40;;;;;;;7.20;3.97;;;;;;;;;;5080303;28;20086;-74
2022/08/11 05:10:06;;;;;;;6.90;4.63;;;;;;;;;;5092651;28;20720;-77
2022/08/11 05:12:35;;;;;;;10.95;5.60;;;;;;;;;;5093194;28;20048;-76
2022/08/11 05:35:24;;;;;;;11.32;5.65;;;;;;;;;;5085946;28;20536;-79
2022/08/11 05:57:09;;;;;;;5.35;3.92;;;;;;;;;;5080147;28;20544;-79
2022/08/11 05:59:36;;;;;;;10.05;4.70;;;;;;;;;;5093111;28;20471;-80
2022/08/11 06:02:07;;;;;;;8.13;4.07;;;;;;;;;;5124403;27;20320;-79
2022/08/11 06:04:33;;;;;;;3.70;2.95;;;;;;;;;;5092605;28;20471;-78
2022/08/11 06:07:08;;;;;;;11.30;4.55;;;;;;;;;;5125127;27;20475;-79
2022/08/11 06:09:36;;;;;;;11.55;4.35;;;;;;;;;;5125553;27;20466;-79
2022/08/11 06:12:15;;;;;;;6.18;4.13;;;;;;;;;;5124616;27;20479;-79
2022/08/11 06:14:43;;;;;;;8.18;4.55;;;;;;;;;;5091672;28;20479;-79
2022/08/11 06:17:09;;;;;;;7.85;4.13;;;;;;;;;;5091970;28;20067;-79
2022/08/11 06:19:39;;;;;;;6.25;3.97;;;563.80;1843.20;;;;;;5124594;27;20031;-79
2022/08/11 06:22:09;;;;;;;6.35;3.92;;;563.60;1843.20;;;;;;5092010;28;20527;-79
2022/08/11 06:24:38;;;;;;;8.10;4.13;;;563.60;1843.20;;;;;;5090439;28;20074;-78
2022/08/11 06:27:06;;;;;;;4.95;3.83;;;;;;;;;;5124286;27;20032;-78
2022/08/11 06:29:39;;;;;;;5.03;3.88;;;564.00;1843.20;;;;;;5091523;28;20024;-77
2022/08/11 06:32:05;;;;;;;4.57;3.47;;;;;;;;;;5091440;28;20020;-77
2022/08/11 06:34:51;;;;;;;9.02;5.20;;;;;;;;;;5091315;28;20023;-76
2022/08/11 06:37:27;;;;;;;5.40;4.00;;;;;;;;;;5123643;27;20566;-77
2022/08/11 06:39:56;;;;;;;6.60;4.00;;;;;;;;;;5091726;28;20028;-79
2022/08/11 06:42:32;;;;;;;6.80;5.15;;;;;;;;;;5090142;28;20410;-77
2022/08/11 06:45:07;;;;;;;5.22;4.40;;;;;;;;;;5124246;27;20403;-77
2022/08/11 06:47:33;;;;;;;7.57;3.95;;;;;;;;;;5089985;28;20031;-78
2022/08/11 06:52:46;;;;;;;4.95;4.00;;;;;;;;;;5082267;28;20066;-77
2022/08/11 07:01:10;;;;;;;3.55;3.15;;;;;;;;;;5090890;28;20134;-76
2022/08/11 07:03:38;;;;;;;4.07;3.30;;;;;;;;;;5119672;27;20450;-78
2022/08/11 07:06:04;;;;;;;4.32;3.42;;;;;;;;;;5081195;28;20387;-77
2022/08/11 07:17:31;;;;;;;6.38;4.63;;;;;;;;;;5067680;28;20051;-80
2022/08/11 07:31:14;;;;;;;5.22;3.63;;;;;;;;;;5078101;28;20072;-78
2022/08/11 07:33:48;;;;;;;7.22;3.80;;;;;;;;;;5091120;28;20020;-78
2022/08/11 07:36:15;;;;;;;4.90;3.15;;;;;;;;;;5078323;28;20024;-79
2022/08/11 07:38:44;;;;;;;6.30;3.85;;;;;;;;;;5089756;28;20075;-78
2022/08/11 07:41:11;;;;;;;4.53;3.38;;;;;;;;;;5123387;27;20436;-76
2022/08/11 07:43:39;;;;;;;5.47;3.83;;;;;;;;;;5079001;28;20151;-76
2022/08/11 07:54:21;;;;;;;9.10;5.00;;;;;;;;;;5090957;28;20102;-76
2022/08/11 07:56:47;;;;;;;6.78;3.42;;;;;;;;;;5100380;28;20023;-77
2022/08/11 08:18:35;;;;;;;7.85;3.45;;;;;;;;;;5088969;28;20087;-77
2022/08/11 08:21:10;;;;;;;5.53;3.70;;;;;;;;;;5089397;28;20153;-79
2022/08/11 08:23:38;;;;;;;7.32;3.80;;;;;;;;;;5076065;28;20016;-79
2022/08/11 08:26:57;;;;;;;4.55;3.35;;;;;;;;;;5084623;28;20097;-79
2022/08/11 08:28:52;;;;;;;5.05;3.45;;;;;;;;;;5090490;28;20031;-81
2022/08/11 08:31:18;;;;;;;4.60;3.72;;;;;;;;;;5093767;28;20057;-78
2022/08/11 08:33:44;;;;;;;6.07;4.22;;;;;;;;;;5093175;28;20073;-78
2022/08/11 08:36:11;;;;;;;4.95;3.88;;;;;;;;;;5086613;28;20020;-76
2022/08/11 08:38:41;;;;;;;5.32;4.50;;;;;;;;;;5119131;27;20028;-78
2022/08/11 08:41:08;;;;;;;7.90;4.28;;;;;;;;;;5126095;27;20016;-78
2022/08/11 08:43:35;;;;;;;5.22;4.25;;;;;;;;;;5093883;28;20035;-77
2022/08/11 08:46:02;;;;;;;5.38;4.18;;;;;;;;;;5093347;28;20332;-76
2022/08/11 08:48:30;;;;;;;5.03;3.20;;;;;;;;;;5079319;28;20016;-78
2022/08/11 08:53:48;;;;;;;5.88;3.45;;;;;;;;;;5080608;28;20034;-78
2022/08/11 08:56:14;;;;;;;5.90;4.18;;;;;;;;;;5083515;28;20094;-77
2022/08/11 08:58:41;;;;;;;5.05;2.85;;;;;;;;;;5079105;28;20027;-79
2022/08/11 09:01:10;;;;;;;5.88;4.55;;;;;;;;;;5092034;28;20113;-78
2022/08/11 09:03:37;;;;;;;5.18;3.00;;;;;;;;;;5103467;28;20020;-79
2022/08/11 09:06:03;;;;;;;5.90;2.97;;;;;;;;;;5093617;28;20020;-79
2022/08/11 09:08:31;;;;;;;9.05;3.67;;;;;;;;;;5093034;28;20048;-79
2022/08/11 09:13:43;;;;;;;4.60;3.10;;;;;;;;;;5093714;28;20077;-78
2022/08/11 09:16:10;;;;;;;5.25;2.60;;;;;;;;;;5092892;28;20016;-78
2022/08/11 09:18:37;;;;;;;5.35;3.72;;;;;;;;;;5092863;28;20030;-79
2022/08/11 09:21:03;;;;;;;6.60;2.00;;;;;;;;;;5125249;27;20044;-78
2022/08/11 09:29:00;;;;;;;8.27;3.20;;;;;;;;;;5077641;28;20097;-78
2022/08/11 09:31:26;;;;;;;2.90;1.88;;;;;;;;;;5125324;27;20390;-76
2022/08/11 09:33:54;;;;;;;3.95;2.75;;;;;;;;;;5123440;27;20028;-77
2022/08/11 09:41:50;;;;;;;6.00;3.28;;;;;;;;;;5093796;28;20433;-84
2022/08/11 09:47:04;;;;;;;3.28;2.08;;;;;;;;;;5091892;28;20031;-77
2022/08/11 09:49:31;;;;;;;4.95;2.47;;;;;;;;;;5093409;28;20047;-76
2022/08/11 09:51:57;;;;;;;5.18;2.83;;;;;;;;;;5090461;28;20463;-79
2022/08/11 09:54:24;;;;;;;6.43;2.95;;;;;;;;;;5090828;28;20036;-78
2022/08/11 09:59:38;;;;;;;4.10;2.03;;;;;;;;;;5077563;28;20410;-76
2022/08/11 10:02:06;;;;;;;4.72;2.40;;;;;;;;;;5077361;28;20469;-79
2022/08/11 10:04:37;;;;;;;3.97;2.08;;;;;;;;;;5124694;27;20028;-80
2022/08/11 10:07:05;;;;;;;4.50;3.33;;;;;;;;;;5124515;27;20043;-77
2022/08/11 10:09:34;;;;;;;3.55;1.80;;;;;;;;;;5091719;28;20031;-75
2022/08/11 10:12:04;;;;;;;3.85;1.75;;;;;;;;;;5087831;28;20024;-79
2022/08/11 10:17:18;;;;;;;5.90;3.30;;;;;;;;;;5076718;28;20142;-78
2022/08/11 10:19:45;;;;;;;14.35;9.52;;;;;;;;;;5090008;28;20135;-78
2022/08/11 10:27:43;;;;;;;3.83;2.22;;;;;;;;;;5078678;28;20039;-78
2022/08/11 10:35:41;;;;;;;5.00;2.85;;;;;;;;;;5090575;28;20073;-78
2022/08/11 10:38:08;;;;;;;3.28;2.00;;;;;;;;;;5091091;28;20402;-77
2022/08/11 10:40:34;;;;;;;4.72;2.50;;;;;;;;;;5090996;28;20016;-76
2022/08/11 10:43:01;;;;;;;15.35;11.70;;;;;;;;;;5091028;28;20066;-78
2022/08/11 10:48:13;;;;;;;4.25;2.67;;;;;;;;;;5087920;28;20069;-76
2022/08/11 10:58:55;;;;;;;6.88;5.40;;;;;;;;;;5081900;28;20050;-75
2022/08/11 11:01:21;;;;;;;5.47;2.70;;;;;;;;;;5090635;28;20099;-75
2022/08/11 11:03:51;;;;;;;21.63;16.67;;;;;;;;;;5123353;27;20127;-75
2022/08/11 11:06:25;;;;;;;2.75;1.70;;;;;;;;;;5090370;28;20467;-73
2022/08/11 11:09:12;;;;;;;2.95;1.40;;;;;;;;;;5076318;28;20020;-74
2022/08/11 11:19:38;;;;;;;4.38;2.38;;;;;;;;;;5079332;28;20533;-75
2022/08/11 11:24:59;;;;;;;7.45;3.85;;;;;;;;;;5079125;28;20031;-74
2022/08/11 11:27:44;;;;;;;3.17;2.03;;;;;;;;;;5088726;28;20043;-75
2022/08/11 11:30:13;;;;;;;3.08;2.13;;;;;;;;;;5090295;28;20031;-76
2022/08/11 11:32:48;;;;;;;3.67;2.30;;;;;;;;;;5088649;28;20181;-76
2022/08/11 11:35:25;;;;;;;4.50;2.22;;;;;;;;;;5090426;28;20123;-76
2022/08/11 11:37:52;;;;;;;3.72;2.33;;;;;;;;;;5077002;28;20482;-75
2022/08/11 11:40:22;;;;;;;2.65;1.90;;;;;;;;;;5090118;28;20061;-73
2022/08/11 11:42:49;;;;;;;3.53;2.03;;;;;;;;;;5090345;28;20487;-74
2022/08/11 11:45:20;;;;;;;4.53;2.42;;;;;;;;;;5078737;28;20021;-75
2022/08/11 11:47:51;;;;;;;6.53;1.83;;;;;;;;;;5087750;28;20095;-75
2022/08/11 11:50:18;;;;;;;2.55;1.77;;;;;;;;;;5119002;27;20155;-76
2022/08/11 11:52:45;;;;;;;3.67;2.67;;;;;;;;;;5121279;28;20421;-77
2022/08/11 11:55:11;;;;;;;4.30;2.30;;;;;;;;;;5122499;28;20115;-77
2022/08/11 12:03:11;;;;;;;4.93;2.22;;;;;;;;;;5093570;28;20039;-76
2022/08/11 12:05:39;;;;;;;2.63;1.50;;;;;;;;;;5093824;28;20128;-78
2022/08/11 12:08:10;;;;;;;3.20;1.58;;;;;;;;;;5094030;28;20103;-77
2022/08/11 12:10:37;;;;;;;2.15;1.35;;;;;;;;;;5093532;28;20016;-76
2022/08/11 12:15:50;;;;;;;2.92;2.13;;;;;;;;;;5078963;28;20081;-77
2022/08/11 12:18:16;;;;;;;4.28;1.77;;;;;;;;;;5093109;28;20035;-77
2022/08/11 12:20:45;;;;;;;2.97;1.80;;;;;;;;;;5093089;28;20044;-75
2022/08/11 12:28:42;;;;;;;3.65;2.00;;;;;;;;;;5078822;28;20185;-77
2022/08/11 12:31:08;;;;;;;4.45;2.63;;;;;;;;;;5093231;28;20520;-78
2022/08/11 12:33:36;;;;;;;4.13;2.63;;;;;;;;;;5093336;28;20028;-76
2022/08/11 12:36:04;;;;;;;10.60;5.85;;;;;;;;;;5078456;28;20032;-75
2022/08/11 12:38:32;;;;;;;3.20;2.30;;;;;;;;;;5094206;28;20463;-76
2022/08/11 12:46:36;;;;;;;4.43;2.20;;;820.00;230.40;;;;;;5093033;28;20069;-78
2022/08/11 12:52:03;;;;;;;3.70;2.63;;;820.00;230.40;;;;;;5079282;28;20148;-77
2022/08/11 12:54:32;;;;;;;4.70;3.00;;;;;;;;;;5093008;28;20032;-76
2022/08/11 13:05:19;;;;;;;8.10;3.80;;;;;;;;;;5091911;28;20077;-77
2022/08/11 13:07:46;;;;;;;3.95;2.35;;;;;;;;;;5081293;28;20047;-78
2022/08/11 13:12:46;;;;;;;3.25;2.47;;;819.20;230.40;;;;;;5090553;28;20085;-78
2022/08/11 13:13:01;;;;;;;4.32;1.67;;;;;;;;;;5091681;28;20024;-78
2022/08/11 13:15:27;;;;;;;5.60;2.63;;;;;;;;;;5091128;28;20451;-78
2022/08/11 13:17:54;;;;;;;2.92;2.25;;;;;;;;;;5092069;28;20032;-77
2022/08/11 13:20:24;;;;;;;5.80;2.55;;;;;;;;;;5091655;28;20108;-77
2022/08/11 13:22:51;;;;;;;2.92;2.03;;;;;;;;;;5092057;28;20016;-75
2022/08/11 13:25:18;;;;;;;3.78;2.30;;;;;;;;;;5091917;28;20051;-78
2022/08/11 13:27:45;;;;;;;9.38;6.35;;;;;;;;;;5091951;28;20024;-78
2022/08/11 13:32:58;;;;;;;6.07;2.00;;;;;;;;;;5092017;28;20031;-76
2022/08/11 13:35:24;;;;;;;4.20;2.65;;;;;;;;;;5124431;27;20036;-78
2022/08/11 13:37:50;;;;;;;4.05;2.63;;;;;;;;;;5092255;28;20027;-76
2022/08/11 13:40:17;;;;;;;4.88;2.35;;;;;;;;;;5092049;28;20479;-78
2022/08/11 13:42:43;;;;;;;3.20;2.45;;;;;;;;;;5091765;28;20016;-79
2022/08/11 13:45:12;;;;;;;4.63;2.33;;;;;;;;;;5091602;28;20016;-77
2022/08/11 13:47:39;;;;;;;7.35;2.72;;;;;;;;;;5124478;27;20434;-78
2022/08/11 13:50:09;;;;;;;7.53;3.33;;;;;;;;;;5091607;28;20046;-78
2022/08/11 13:52:38;;;;;;;5.35;2.85;;;;;;;;;;5091591;28;20467;-79
2022/08/11 13:55:05;;;;;;;4.00;2.13;;;;;;;;;;5091437;28;20115;-77
2022/08/11 13:57:35;;;;;;;3.13;2.53;;;;;;;;;;5124296;27;20032;-77
2022/08/11 14:00:10;;;;;;;5.10;2.80;;;;;;;;;;5133307;27;20023;-76
2022/08/11 14:02:41;;;;;;;3.55;2.42;;;;;;;;;;5121861;27;20055;-75
2022/08/11 14:05:10;;;;;;;3.53;2.42;;;;;;;;;;5090471;28;20048;-76
2022/08/11 14:07:41;;;;;;;2.83;2.50;;;;;;;;;;5090691;28;20039;-76
2022/08/11 14:10:09;;;;;;;4.43;2.47;;;;;;;;;;5122300;27;20120;-77
2022/08/11 14:15:40;;;;;;;8.60;4.20;;;;;;;;;;5032502;28;20294;-78
2022/08/11 14:18:08;;;;;;;22.60;7.25;;;;;;;;;;5081158;28;20050;-77
2022/08/11 14:23:25;;;;;;;7.28;3.17;;;;;;;;;;5090795;28;20039;-77
2022/08/11 14:28:37;;;;;;;3.42;2.45;;;;;;;;;;5090721;28;20063;-76
2022/08/11 14:31:07;;;;;;;3.75;2.20;;;;;;;;;;5090738;28;20396;-77
2022/08/11 14:33:34;;;;;;;4.78;4.32;;;;;;;;;;5091220;28;20025;-78
2022/08/11 14:36:04;;;;;;;3.65;3.10;;;;;;;;;;5089766;28;20066;-78
2022/08/11 14:38:32;;;;;;;3.85;3.38;;;;;;;;;;5090897;28;20035;-79
2022/08/11 14:49:13;;;;;;;1.90;1.60;;;;;;;;;;5091127;28;20441;-78
2022/08/11 14:51:40;;;;;;;3.38;2.97;;;;;;;;;;5090126;28;20024;-77
2022/08/11 14:56:53;;;;;;;10.90;3.63;;;;;;;;;;5091980;28;20486;-78
2022/08/11 14:59:19;;;;;;;2.97;2.20;;;;;;;;;;5091302;28;20032;-77
2022/08/11 15:04:30;;;;;;;4.35;3.88;;;;;;;;;;5086824;28;20051;-78
2022/08/11 15:06:58;;;;;;;5.88;3.15;;;;;;;;;;5084812;28;20024;-77
2022/08/11 15:09:25;;;;;;;5.00;3.95;;;;;;;;;;5085600;28;20083;-77
2022/08/11 15:12:15;;;;;;;5.43;4.18;;;;;;;;;;5111080;27;20034;-79
2022/08/11 15:17:29;;;;;;;4.90;4.50;;;;;;;;;;5085577;28;20128;-79
2022/08/11 15:25:26;;;;;;;4.53;4.13;;;;;;;;;;5088668;28;20103;-81
2022/08/11 15:39:00;;;;;;;3.97;2.17;;;;;;;;;;5091102;28;20097;-79
2022/08/11 15:47:02;;;;;;;5.00;2.97;;;;;;;;;;5088322;28;20078;-79
2022/08/11 15:49:34;;;;;;;3.40;2.45;;;;;;;;;;5087882;28;20028;-78
2022/08/11 15:52:03;;;;;;;9.05;2.83;;;;;;;;;;5091171;28;20034;-80
2022/08/11 15:54:33;;;;;;;3.92;2.78;;;;;;;;;;5089880;28;20028;-78
2022/08/11 15:57:00;;;;;;;7.95;3.33;;;;;;;;;;5088687;28;20028;-77
2022/08/11 16:05:00;;;;;;;4.47;2.28;;;;;;;;;;5090719;28;20031;-76
2022/08/11 16:07:29;;;;;;;4.28;2.50;;;;;;;;;;5088919;28;20026;-78
2022/08/11 16:10:08;;;;;;;6.88;3.53;;;;;;;;;;5090462;28;20125;-77
2022/08/11 16:12:37;;;;;;;5.90;2.97;;;;;;;;;;5113914;27;20028;-78
2022/08/11 16:17:52;;;;;;;4.30;3.47;;;;;;;;;;5086658;28;20097;-79
2022/08/11 16:20:24;;;;;;;7.70;3.05;;;;;;;;;;5085348;28;20062;-77
2022/08/11 16:22:51;;;;;;;7.43;3.92;;;;;;;;;;5086084;28;20032;-77
2022/08/11 16:25:21;;;;;;;4.68;2.60;;;;;;;;;;5087498;28;20498;-78
2022/08/11 16:27:50;;;;;;;5.93;3.10;;;;;;;;;;5110041;27;20035;-79
2022/08/11 16:30:16;;;;;;;4.47;2.60;;;;;;;;;;5086418;28;20043;-79
2022/08/11 16:32:48;;;;;;;3.97;2.60;;;;;;;;;;5086900;28;20471;-79
2022/08/11 16:40:50;;;;;;;4.85;3.33;;;;;;;;;;5085351;28;20039;-78
2022/08/11 16:48:49;;;;;;;3.20;2.45;;;;;;;;;;5085786;28;20077;-80
2022/08/11 16:51:15;;;;;;;5.22;3.30;;;;;;;;;;5085518;28;20024;-79
2022/08/11 16:53:47;;;;;;;4.60;2.97;;;;;;;;;;5085739;28;20024;-78
2022/08/11 16:56:16;;;;;;;6.20;2.78;;;;;;;;;;5086201;28;20028;-80
2022/08/11 17:01:27;;;;;;;5.38;2.72;;;;;;;;;;5085428;28;20177;-79
2022/08/11 17:15:01;;;;;;;5.97;2.45;;;;;;;;;;5089682;28;20050;-74
2022/08/11 17:17:29;;;;;;;4.80;3.42;;;;;;;;;;5091602;28;20026;-75
2022/08/11 17:19:58;;;;;;;4.03;2.70;;;;;;;;;;5091529;28;20081;-74
2022/08/11 17:25:10;;;;;;;5.75;3.58;;;;;;;;;;5081095;28;20096;-75
2022/08/11 17:27:37;;;;;;;5.07;3.33;;;;;;;;;;5123326;27;20511;-75
2022/08/11 17:30:07;;;;;;;7.15;3.25;;;;;;;;;;5091541;28;20031;-74
2022/08/11 17:35:30;;;;;;;7.03;3.17;;;;;;;;;;5091551;28;20059;-75
2022/08/11 17:38:16;;;;;;;5.90;3.88;;;;;;;;;;5124268;27;20189;-75
2022/08/11 17:49:02;;;;;;;11.80;4.18;;;;;;;;;;5092620;28;20035;-76
2022/08/11 17:59:51;;;;;;;10.38;4.28;;;;;;;;;;5091201;28;20075;-75
2022/08/11 18:05:08;;;;;;;9.10;4.05;;;;;;;;;;5090804;28;20441;-74
